Time;durP1;ratioP1;P1;durP2;ratioP2;P2;SDS_P1;SDS_P2;PMS_P1;PMS_P2;Temp;Humidity;BMP_temperature;BMP_pressure;BME280_temperature;BME280_humidity;BME280_pressure;Samples;Min_cycle;Max_cycle;Signal;HPM_P1;HPM_P2
2021/12/08 00:00:17;;;;;;;;;;;;;;;;;;1907360;28;7029;-64
2021/12/08 00:01:17;;;;;;;;;;;;;;;;;;1912238;28;7157;-65
2021/12/08 00:02:17;;;;;;;;;;;;;;;;;;1913548;28;7001;-65
2021/12/08 00:03:15;;;;;;;;;;;;;;;;;;1904530;28;7009;-64
2021/12/08 00:04:13;;;;;;;;;;;;;;;;;;1905747;28;7005;-64
2021/12/08 00:05:13;;;;;;;;;;;;;;;;;;1906340;28;8050;-64
2021/12/08 00:06:11;;;;;;;;;;;;;;;;;;1907936;28;8107;-64
2021/12/08 00:07:09;;;;;;;;;;;;;;;;;;1913000;28;7190;-64
2021/12/08 00:08:08;;;;;;;;;;;;;;;;;;1913939;28;7100;-64
2021/12/08 00:09:25;;;;;;;;;;;;;;;;;;1913677;28;8073;-64
2021/12/08 00:13:03;;;;;;;;;;;;;;;;;;1913121;28;7100;-65
2021/12/08 00:14:00;;;;;;;;;;;;;;;;;;1910708;28;8637;-65
2021/12/08 00:14:57;;;;;;;;;;;;;;;;;;1905752;28;7092;-65
2021/12/08 00:15:56;;;;;;;;;;;;;;;;;;1905435;28;8091;-64
2021/12/08 00:16:54;;;;;;;;;;;;;;;;;;1906047;28;7046;-64
2021/12/08 00:17:51;;;;;;;;;;;;;;;;;;1905610;28;7017;-64
2021/12/08 00:18:49;;;;;;;;;;;;;;;;;;1905419;28;7017;-65
2021/12/08 00:19:46;;;;;;;;;;;;;;;;;;1903956;28;7021;-65
2021/12/08 00:20:46;;;;;;;;;;;;;;;;;;1907766;28;8090;-64
2021/12/08 00:21:44;;;;;;;;;;;;;;;;;;1911995;28;7013;-64
2021/12/08 00:22:41;;;;;;;;;;;;;;;;;;1911690;28;7037;-65
2021/12/08 00:23:39;;;;;;;;;;;;;;;;;;1912979;28;7025;-64
2021/12/08 00:24:36;;;;;;;;;;;;;;;;;;1912632;28;7001;-65
2021/12/08 00:25:35;;;;;;;;;;;;;;;;;;1912660;28;7101;-65
2021/12/08 00:26:33;;;;;;;;;;;;;;;;;;1912779;28;7096;-65
2021/12/08 00:27:30;;;;;;;;;;;;;;;;;;1908164;28;7100;-65
2021/12/08 00:28:28;;;;;;;;;;;;;;;;;;1908229;28;7001;-64
2021/12/08 00:29:25;;;;;;;;;;;;;;;;;;1905417;28;8115;-65
2021/12/08 00:30:24;;;;;;;;;;;;;;;;;;1906073;28;8042;-65
2021/12/08 00:31:21;;;;;;;;;;;;;;;;;;1905881;28;7001;-64
2021/12/08 00:32:25;;;;;;;;;;;;;;;;;;1905495;28;7037;-65
2021/12/08 00:33:23;;;;;;;;;;;;;;;;;;1905181;28;7117;-64
2021/12/08 00:34:21;;;;;;;;;;;;;;;;;;1904656;28;7041;-65
2021/12/08 00:35:19;;;;;;;;;;;;;;;;;;1905610;28;7005;-65
2021/12/08 00:36:19;;;;;;;;;;;;;;;;;;1905008;28;7412;-64
2021/12/08 00:37:16;;;;;;;;;;;;;;;;;;1904239;28;7117;-64
2021/12/08 00:38:17;;;;;;;;;;;;;;;;;;1905379;28;7021;-64
2021/12/08 00:39:14;;;;;;;;;;;;;;;;;;1906381;28;7005;-64
2021/12/08 00:40:14;;;;;;;;;;;;;;;;;;1903808;28;8055;-65
2021/12/08 00:41:11;;;;;;;;;;;;;;;;;;1905855;28;7009;-64
2021/12/08 00:42:09;;;;;;;;;;;;;;;;;;1905571;28;7101;-64
2021/12/08 00:43:06;;;;;;;;;;;;;;;;;;1905628;28;8210;-65
2021/12/08 00:44:04;;;;;;;;;;;;;;;;;;1905416;28;7137;-64
2021/12/08 00:45:03;;;;;;;;;;;;;;;;;;1905747;28;7005;-64
2021/12/08 00:46:01;;;;;;;;;;;;;;;;;;1906888;28;7182;-64
2021/12/08 00:46:58;;;;;;;;;;;;;;;;;;1913332;28;8114;-64
2021/12/08 00:47:56;;;;;;;;;;;;;;;;;;1912814;28;7390;-64
2021/12/08 00:48:54;;;;;;;;;;;;;;;;;;1907851;28;7304;-65
2021/12/08 00:49:51;;;;;;;;;;;;;;;;;;1904705;28;7124;-64
2021/12/08 00:50:49;;;;;;;;;;;;;;;;;;1905695;28;7005;-64
2021/12/08 00:51:46;;;;;;;;;;;;;;;;;;1905741;28;7038;-64
2021/12/08 00:52:44;;;;;;;;;;;;;;;;;;1905989;28;7009;-65
2021/12/08 00:53:41;;;;;;;;;;;;;;;;;;1905714;28;7097;-64
2021/12/08 00:54:39;;;;;;;;;;;;;;;;;;1905415;28;7005;-64
2021/12/08 00:55:37;;;;;;;;;;;;;;;;;;1904325;28;8055;-64
2021/12/08 00:56:35;;;;;;;;;;;;;;;;;;1911306;28;7161;-64
2021/12/08 00:57:32;;;;;;;;;;;;;;;;;;1908424;28;7328;-65
2021/12/08 00:58:30;;;;;;;;;;;;;;;;;;1913436;28;7021;-64
2021/12/08 00:59:27;;;;;;;;;;;;;;;;;;1912267;28;7025;-64
2021/12/08 01:00:42;;;;;;;;;;;;;;;;;;1910631;28;7042;-64
2021/12/08 01:01:39;;;;;;;;;;;;;;;;;;1913601;28;7009;-64
2021/12/08 01:02:39;;;;;;;;;;;;;;;;;;1913547;28;7320;-65
2021/12/08 01:03:37;;;;;;;;;;;;;;;;;;1912769;28;7005;-65
2021/12/08 01:04:35;;;;;;;;;;;;;;;;;;1904976;28;7010;-65
2021/12/08 01:05:35;;;;;;;;;;;;;;;;;;1905816;28;7131;-64
2021/12/08 01:06:33;;;;;;;;;;;;;;;;;;1905797;28;7034;-64
2021/12/08 01:07:30;;;;;;;;;;;;;;;;;;1906054;28;7328;-65
2021/12/08 01:08:29;;;;;;;;;;;;;;;;;;1905526;28;7006;-65
2021/12/08 01:09:26;;;;;;;;;;;;;;;;;;1905983;28;8027;-65
2021/12/08 01:10:26;;;;;;;;;;;;;;;;;;1905764;28;7304;-65
2021/12/08 01:11:31;;;;;;;;;;;;;;;;;;1905938;28;7042;-65
2021/12/08 01:12:29;;;;;;;;;;;;;;;;;;1905721;28;7013;-65
2021/12/08 01:13:27;;;;;;;;;;;;;;;;;;1905646;28;7092;-65
2021/12/08 01:14:24;;;;;;;;;;;;;;;;;;1908390;28;7005;-64
2021/12/08 01:15:26;;;;;;;;;;;;;;;;;;1906507;28;7001;-65
2021/12/08 01:16:23;;;;;;;;;;;;;;;;;;1905431;28;7096;-65
2021/12/08 01:17:21;;;;;;;;;;;;;;;;;;1905080;28;7017;-65
2021/12/08 01:18:19;;;;;;;;;;;;;;;;;;1905454;28;7041;-64
2021/12/08 01:19:18;;;;;;;;;;;;;;;;;;1905073;28;7006;-65
2021/12/08 01:20:17;;;;;;;;;;;;;;;;;;1905144;28;7039;-65
2021/12/08 01:21:14;;;;;;;;;;;;;;;;;;1904935;28;7100;-65
2021/12/08 01:22:12;;;;;;;;;;;;;;;;;;1905430;28;8047;-65
2021/12/08 01:23:09;;;;;;;;;;;;;;;;;;1904597;28;7092;-65
2021/12/08 01:24:07;;;;;;;;;;;;;;;;;;1903613;28;8089;-65
2021/12/08 01:25:04;;;;;;;;;;;;;;;;;;1905479;28;7092;-65
2021/12/08 01:26:06;;;;;;;;;;;;;;;;;;1904782;28;7017;-65
2021/12/08 01:27:03;;;;;;;;;;;;;;;;;;1905277;28;7038;-65
2021/12/08 01:28:01;;;;;;;;;;;;;;;;;;1905049;28;7006;-65
2021/12/08 01:28:58;;;;;;;;;;;;;;;;;;1903738;28;7100;-65
2021/12/08 01:29:55;;;;;;;;;;;;;;;;;;1904757;28;7014;-65
2021/12/08 01:30:54;;;;;;;;;;;;;;;;;;1905578;28;7006;-64
2021/12/08 01:31:52;;;;;;;;;;;;;;;;;;1906092;28;7058;-64
2021/12/08 01:32:49;;;;;;;;;;;;;;;;;;1905571;28;7022;-64
2021/12/08 01:33:47;;;;;;;;;;;;;;;;;;1904579;28;7049;-65
2021/12/08 01:34:45;;;;;;;;;;;;;;;;;;1904886;28;7169;-65
2021/12/08 01:35:43;;;;;;;;;;;;;;;;;;1905447;28;7005;-64
2021/12/08 01:36:41;;;;;;;;;;;;;;;;;;1904020;28;7038;-65
2021/12/08 01:37:39;;;;;;;;;;;;;;;;;;1905547;28;8340;-65
2021/12/08 01:38:37;;;;;;;;;;;;;;;;;;1905397;28;7005;-64
2021/12/08 01:39:34;;;;;;;;;;;;;;;;;;1906208;28;7005;-65
2021/12/08 01:40:32;;;;;;;;;;;;;;;;;;1905653;28;7005;-65
2021/12/08 01:41:29;;;;;;;;;;;;;;;;;;1905137;28;7042;-65
2021/12/08 01:42:35;;;;;;;;;;;;;;;;;;1905679;28;7021;-65
2021/12/08 01:43:42;;;;;;;;;;;;;;;;;;1905628;28;7045;-65
2021/12/08 01:46:03;;;;;;;;;;;;;;;;;;1905722;28;7029;-65
2021/12/08 01:47:01;;;;;;;;;;;;;;;;;;1906777;28;7439;-65
2021/12/08 01:47:58;;;;;;;;;;;;;;;;;;1913004;28;7120;-64
2021/12/08 01:48:56;;;;;;;;;;;;;;;;;;1907015;28;7092;-65
2021/12/08 01:49:54;;;;;;;;;;;;;;;;;;1904809;28;8063;-65
2021/12/08 01:50:53;;;;;;;;;;;;;;;;;;1905581;28;7013;-64
2021/12/08 01:51:51;;;;;;;;;;;;;;;;;;1905961;28;7104;-64
2021/12/08 01:52:49;;;;;;;;;;;;;;;;;;1906499;28;7042;-64
2021/12/08 01:53:49;;;;;;;;;;;;;;;;;;1910353;28;7013;-65
2021/12/08 01:54:46;;;;;;;;;;;;;;;;;;1913439;28;7096;-65
2021/12/08 01:55:44;;;;;;;;;;;;;;;;;;1914162;28;7092;-65
2021/12/08 01:56:42;;;;;;;;;;;;;;;;;;1913459;28;7092;-65
2021/12/08 01:57:39;;;;;;;;;;;;;;;;;;1914458;28;7036;-64
2021/12/08 01:58:37;;;;;;;;;;;;;;;;;;1914345;28;7006;-64
2021/12/08 01:59:35;;;;;;;;;;;;;;;;;;1914065;28;7005;-64
2021/12/08 02:00:41;;;;;;;;;;;;;;;;;;1913438;28;7176;-64
2021/12/08 02:01:40;;;;;;;;;;;;;;;;;;1913406;28;7002;-65
2021/12/08 02:02:38;;;;;;;;;;;;;;;;;;1914036;28;7109;-64
2021/12/08 02:03:37;;;;;;;;;;;;;;;;;;1910142;28;7048;-64
2021/12/08 02:04:36;;;;;;;;;;;;;;;;;;1905987;28;7134;-64
2021/12/08 02:05:34;;;;;;;;;;;;;;;;;;1906310;28;7006;-65
2021/12/08 02:06:36;;;;;;;;;;;;;;;;;;1906540;28;7001;-65
2021/12/08 02:07:35;;;;;;;;;;;;;;;;;;1907086;28;7096;-64
2021/12/08 02:08:33;;;;;;;;;;;;;;;;;;1906964;28;7104;-65
2021/12/08 02:09:30;;;;;;;;;;;;;;;;;;1906941;28;7009;-65
2021/12/08 02:10:28;;;;;;;;;;;;;;;;;;1907128;28;7092;-64
2021/12/08 02:11:25;;;;;;;;;;;;;;;;;;1906655;28;7005;-65
2021/12/08 02:12:23;;;;;;;;;;;;;;;;;;1911635;28;7093;-65
2021/12/08 02:13:21;;;;;;;;;;;;;;;;;;1913646;28;7042;-65
2021/12/08 02:14:19;;;;;;;;;;;;;;;;;;1909006;28;7050;-64
2021/12/08 02:15:19;;;;;;;;;;;;;;;;;;1906603;28;7120;-65
2021/12/08 02:16:16;;;;;;;;;;;;;;;;;;1906019;28;7148;-64
2021/12/08 02:17:14;;;;;;;;;;;;;;;;;;1906029;28;7642;-64
2021/12/08 02:18:14;;;;;;;;;;;;;;;;;;1906245;28;7013;-65
2021/12/08 02:19:11;;;;;;;;;;;;;;;;;;1905914;28;7096;-64
2021/12/08 02:20:10;;;;;;;;;;;;;;;;;;1905834;28;7100;-64
2021/12/08 02:21:25;;;;;;;;;;;;;;;;;;1906259;28;7136;-65
2021/12/08 02:22:22;;;;;;;;;;;;;;;;;;1904781;28;7097;-65
2021/12/08 02:23:20;;;;;;;;;;;;;;;;;;1906048;28;7312;-64
2021/12/08 02:24:19;;;;;;;;;;;;;;;;;;1906729;28;7009;-65
2021/12/08 02:25:19;;;;;;;;;;;;;;;;;;1906442;28;7013;-65
2021/12/08 02:26:16;;;;;;;;;;;;;;;;;;1905778;28;7013;-65
2021/12/08 02:27:14;;;;;;;;;;;;;;;;;;1907807;28;7014;-65
2021/12/08 02:28:11;;;;;;;;;;;;;;;;;;1912873;28;7092;-65
2021/12/08 02:29:20;;;;;;;;;;;;;;;;;;1913813;28;7354;-64
2021/12/08 02:31:32;;;;;;;;;;;;;;;;;;1913935;28;7005;-64
2021/12/08 02:47:54;;;;;;;;;;;;;;;;;;1911767;28;7029;-65
2021/12/08 02:48:52;;;;;;;;;;;;;;;;;;1906492;28;7294;-65
2021/12/08 02:49:49;;;;;;;;;;;;;;;;;;1906554;28;7009;-65
2021/12/08 02:50:47;;;;;;;;;;;;;;;;;;1906284;28;7017;-65
2021/12/08 02:51:44;;;;;;;;;;;;;;;;;;1906238;28;7041;-65
2021/12/08 02:52:42;;;;;;;;;;;;;;;;;;1906253;28;7092;-65
2021/12/08 02:53:39;;;;;;;;;;;;;;;;;;1906061;28;7088;-65
2021/12/08 02:54:41;;;;;;;;;;;;;;;;;;1906326;28;7109;-65
2021/12/08 02:55:40;;;;;;;;;;;;;;;;;;1906424;28;7149;-65
2021/12/08 02:56:37;;;;;;;;;;;;;;;;;;1907277;28;7100;-65
2021/12/08 02:57:35;;;;;;;;;;;;;;;;;;1906175;28;7085;-65
2021/12/08 02:58:32;;;;;;;;;;;;;;;;;;1906427;28;7009;-65
2021/12/08 02:59:30;;;;;;;;;;;;;;;;;;1907368;28;7096;-65
2021/12/08 03:00:29;;;;;;;;;;;;;;;;;;1913503;28;7369;-65
2021/12/08 03:01:27;;;;;;;;;;;;;;;;;;1913447;28;7049;-65
2021/12/08 03:02:25;;;;;;;;;;;;;;;;;;1913311;28;7038;-65
2021/12/08 03:03:24;;;;;;;;;;;;;;;;;;1913930;28;7038;-65
2021/12/08 03:04:21;;;;;;;;;;;;;;;;;;1914047;28;7001;-65
2021/12/08 03:05:19;;;;;;;;;;;;;;;;;;1913801;28;7005;-65
2021/12/08 03:06:17;;;;;;;;;;;;;;;;;;1913747;28;7009;-65
2021/12/08 03:07:15;;;;;;;;;;;;;;;;;;1913784;28;8059;-65
2021/12/08 03:08:13;;;;;;;;;;;;;;;;;;1905494;28;7010;-65
2021/12/08 03:09:16;;;;;;;;;;;;;;;;;;1906107;28;7109;-65
2021/12/08 03:10:15;;;;;;;;;;;;;;;;;;1905687;28;7010;-64
2021/12/08 03:11:13;;;;;;;;;;;;;;;;;;1905592;28;7041;-65
2021/12/08 03:12:10;;;;;;;;;;;;;;;;;;1906788;28;7038;-64
2021/12/08 03:13:08;;;;;;;;;;;;;;;;;;1911812;28;7128;-65
2021/12/08 03:14:07;;;;;;;;;;;;;;;;;;1910241;28;7009;-65
2021/12/08 03:15:06;;;;;;;;;;;;;;;;;;1906094;28;7042;-65
2021/12/08 03:16:04;;;;;;;;;;;;;;;;;;1911455;28;7030;-65
2021/12/08 03:17:06;;;;;;;;;;;;;;;;;;1913190;28;7010;-64
2021/12/08 03:18:04;;;;;;;;;;;;;;;;;;1909224;28;7018;-64
2021/12/08 03:19:02;;;;;;;;;;;;;;;;;;1906269;28;7006;-64
2021/12/08 03:20:00;;;;;;;;;;;;;;;;;;1905815;28;7009;-65
2021/12/08 03:20:57;;;;;;;;;;;;;;;;;;1906391;28;7034;-64
2021/12/08 03:21:56;;;;;;;;;;;;;;;;;;1904562;28;7093;-64
2021/12/08 03:23:00;;;;;;;;;;;;;;;;;;1912028;28;7009;-64
2021/12/08 03:25:07;;;;;;;;;;;;;;;;;;1913116;28;7100;-64
2021/12/08 03:26:06;;;;;;;;;;;;;;;;;;1912539;28;8059;-64
2021/12/08 03:28:13;;;;;;;;;;;;;;;;;;1910044;28;7109;-64
2021/12/08 03:29:21;;;;;;;;;;;;;;;;;;1905782;28;7033;-64
2021/12/08 03:30:25;;;;;;;;;;;;;;;;;;1912025;28;7328;-64
2021/12/08 03:31:29;;;;;;;;;;;;;;;;;;1906292;28;8055;-64
2021/12/08 03:32:37;;;;;;;;;;;;;;;;;;1906291;28;7009;-64
2021/12/08 03:33:35;;;;;;;;;;;;;;;;;;1904151;28;7100;-66
2021/12/08 03:34:37;;;;;;;;;;;;;;;;;;1905121;28;8982;-64
2021/12/08 03:35:35;;;;;;;;;;;;;;;;;;1906365;28;7013;-64
2021/12/08 03:36:33;;;;;;;;;;;;;;;;;;1905646;28;7042;-64
2021/12/08 03:37:33;;;;;;;;;;;;;;;;;;1907605;28;7575;-64
2021/12/08 03:38:31;;;;;;;;;;;;;;;;;;1906860;28;7005;-64
2021/12/08 03:39:29;;;;;;;;;;;;;;;;;;1906037;28;7006;-64
2021/12/08 03:40:27;;;;;;;;;;;;;;;;;;1905026;28;7017;-64
2021/12/08 03:41:26;;;;;;;;;;;;;;;;;;1906149;28;7037;-64
2021/12/08 03:42:26;;;;;;;;;;;;;;;;;;1905946;28;7005;-64
2021/12/08 03:43:23;;;;;;;;;;;;;;;;;;1906049;28;7006;-64
2021/12/08 03:44:21;;;;;;;;;;;;;;;;;;1905471;28;7092;-64
2021/12/08 03:45:18;;;;;;;;;;;;;;;;;;1905720;28;7088;-65
2021/12/08 03:46:17;;;;;;;;;;;;;;;;;;1905596;28;8087;-65
2021/12/08 03:47:18;;;;;;;;;;;;;;;;;;1905944;28;7005;-65
2021/12/08 03:48:21;;;;;;;;;;;;;;;;;;1905744;28;7009;-64
2021/12/08 03:49:18;;;;;;;;;;;;;;;;;;1906689;28;8065;-65
2021/12/08 03:50:17;;;;;;;;;;;;;;;;;;1906310;28;7290;-65
2021/12/08 03:51:17;;;;;;;;;;;;;;;;;;1906432;28;7045;-65
2021/12/08 03:52:14;;;;;;;;;;;;;;;;;;1905249;28;7010;-65
2021/12/08 03:53:15;;;;;;;;;;;;;;;;;;1919966;28;7890;-64
2021/12/08 03:54:13;;;;;;;;;;;;;;;;;;1920413;28;7142;-65
2021/12/08 03:55:12;;;;;;;;;;;;;;;;;;1906663;28;7035;-64
2021/12/08 03:56:10;;;;;;;;;;;;;;;;;;1905926;28;7129;-64
2021/12/08 03:57:08;;;;;;;;;;;;;;;;;;1905161;28;7093;-64
2021/12/08 03:58:05;;;;;;;;;;;;;;;;;;1906232;28;7259;-65
2021/12/08 03:59:05;;;;;;;;;;;;;;;;;;1905970;28;7312;-65
2021/12/08 04:00:05;;;;;;;;;;;;;;;;;;1911405;28;7005;-65
2021/12/08 04:01:05;;;;;;;;;;;;;;;;;;1912425;28;7471;-64
2021/12/08 04:02:04;;;;;;;;;;;;;;;;;;1913335;28;7010;-65
2021/12/08 04:03:04;;;;;;;;;;;;;;;;;;1913046;28;7320;-64
2021/12/08 04:04:06;;;;;;;;;;;;;;;;;;1913580;28;7042;-64
2021/12/08 04:05:04;;;;;;;;;;;;;;;;;;1913586;28;7092;-65
2021/12/08 04:06:13;;;;;;;;;;;;;;;;;;1913119;28;7009;-65
2021/12/08 04:07:13;;;;;;;;;;;;;;;;;;1905376;28;7188;-64
2021/12/08 04:08:18;;;;;;;;;;;;;;;;;;1906066;28;7013;-64
2021/12/08 04:09:33;;;;;;;;;;;;;;;;;;1906215;28;7009;-65
2021/12/08 04:10:30;;;;;;;;;;;;;;;;;;1897447;28;7435;-65
2021/12/08 04:11:28;;;;;;;;;;;;;;;;;;1899299;28;7140;-64
2021/12/08 04:12:25;;;;;;;;;;;;;;;;;;1905687;28;7030;-64
2021/12/08 04:13:27;;;;;;;;;;;;;;;;;;1905447;28;7038;-65
2021/12/08 04:14:28;;;;;;;;;;;;;;;;;;1904983;28;7030;-65
2021/12/08 04:15:26;;;;;;;;;;;;;;;;;;1905102;28;7005;-65
2021/12/08 04:16:27;;;;;;;;;;;;;;;;;;1904733;28;7109;-64
2021/12/08 04:17:27;;;;;;;;;;;;;;;;;;1912660;28;7363;-65
2021/12/08 04:18:25;;;;;;;;;;;;;;;;;;1912691;28;7120;-64
2021/12/08 04:19:24;;;;;;;;;;;;;;;;;;1912610;28;7009;-65
2021/12/08 04:20:28;;;;;;;;;;;;;;;;;;1912988;28;7005;-65
2021/12/08 04:21:27;;;;;;;;;;;;;;;;;;1913419;28;7005;-64
2021/12/08 04:22:31;;;;;;;;;;;;;;;;;;1911389;28;7849;-64
2021/12/08 04:23:35;;;;;;;;;;;;;;;;;;1905409;28;7006;-64
2021/12/08 04:24:34;;;;;;;;;;;;;;;;;;1908074;28;7013;-64
2021/12/08 04:25:33;;;;;;;;;;;;;;;;;;1912502;28;7034;-65
2021/12/08 04:26:38;;;;;;;;;;;;;;;;;;1904513;28;7009;-64
2021/12/08 04:27:39;;;;;;;;;;;;;;;;;;1905167;28;7017;-65
2021/12/08 04:28:36;;;;;;;;;;;;;;;;;;1912771;28;7096;-64
2021/12/08 04:29:37;;;;;;;;;;;;;;;;;;1904607;28;7296;-65
2021/12/08 04:30:37;;;;;;;;;;;;;;;;;;1905454;28;7147;-65
2021/12/08 04:31:37;;;;;;;;;;;;;;;;;;1906359;28;7084;-64
2021/12/08 04:32:36;;;;;;;;;;;;;;;;;;1905685;28;7032;-65
2021/12/08 04:33:35;;;;;;;;;;;;;;;;;;1910388;28;7108;-64
2021/12/08 04:34:36;;;;;;;;;;;;;;;;;;1909102;28;7026;-64
2021/12/08 04:35:34;;;;;;;;;;;;;;;;;;1911158;28;7096;-64
2021/12/08 04:36:41;;;;;;;;;;;;;;;;;;1912849;28;7129;-64
2021/12/08 04:37:44;;;;;;;;;;;;;;;;;;1913383;28;7116;-64
2021/12/08 04:38:47;;;;;;;;;;;;;;;;;;1913349;28;7046;-64
2021/12/08 04:40:11;;;;;;;;;;;;;;;;;;1906398;28;8031;-64
2021/12/08 04:41:12;;;;;;;;;;;;;;;;;;1905747;28;7028;-64
2021/12/08 04:42:15;;;;;;;;;;;;;;;;;;1905867;28;7009;-64
2021/12/08 04:43:30;;;;;;;;;;;;;;;;;;1908821;28;7005;-64
2021/12/08 04:44:36;;;;;;;;;;;;;;;;;;1927775;28;7192;-64
2021/12/08 04:45:47;;;;;;;;;;;;;;;;;;1920653;28;7053;-64
2021/12/08 04:48:15;;;;;;;;;;;;;;;;;;1905935;28;7017;-64
2021/12/08 04:51:51;;;;;;;;;;;;;;;;;;1906603;28;7006;-64
2021/12/08 04:53:24;;;;;;;;;;;;;;;;;;1906336;28;7100;-64
2021/12/08 05:05:05;;;;;;;;;;;;;;;;;;1913275;28;7096;-65
2021/12/08 05:07:02;;;;;;;;;;;;;;;;;;1912020;28;7096;-65
2021/12/08 05:07:59;;;;;;;;;;;;;;;;;;1907338;28;7013;-64
2021/12/08 05:08:57;;;;;;;;;;;;;;;;;;1912904;28;7013;-64
2021/12/08 05:09:55;;;;;;;;;;;;;;;;;;1913002;28;7013;-64
2021/12/08 05:10:52;;;;;;;;;;;;;;;;;;1906650;28;8109;-65
2021/12/08 05:11:55;;;;;;;;;;;;;;;;;;1905577;28;7050;-65
2021/12/08 05:12:54;;;;;;;;;;;;;;;;;;1905963;28;7045;-65
2021/12/08 05:13:57;;;;;;;;;;;;;;;;;;1905120;28;7017;-65
2021/12/08 05:14:55;;;;;;;;;;;;;;;;;;1913264;28;7013;-65
2021/12/08 05:15:56;;;;;;;;;;;;;;;;;;1904051;28;7348;-64
2021/12/08 05:16:59;;;;;;;;;;;;;;;;;;1905084;28;7009;-64
2021/12/08 05:18:04;;;;;;;;;;;;;;;;;;1905147;28;7113;-65
2021/12/08 05:19:05;;;;;;;;;;;;;;;;;;1905130;28;7013;-65
2021/12/08 05:20:11;;;;;;;;;;;;;;;;;;1905420;28;8141;-65
2021/12/08 05:21:30;;;;;;;;;;;;;;;;;;1905091;28;7002;-65
2021/12/08 05:22:34;;;;;;;;;;;;;;;;;;1904826;28;7093;-65
2021/12/08 05:23:34;;;;;;;;;;;;;;;;;;1904940;28;7315;-65
2021/12/08 05:24:35;;;;;;;;;;;;;;;;;;1903870;28;7356;-65
2021/12/08 05:25:35;;;;;;;;;;;;;;;;;;1904673;28;7010;-64
2021/12/08 05:26:41;;;;;;;;;;;;;;;;;;1904408;28;7005;-64
2021/12/08 05:27:44;;;;;;;;;;;;;;;;;;1906041;28;7092;-64
2021/12/08 05:28:43;;;;;;;;;;;;;;;;;;1906392;28;7390;-64
2021/12/08 05:29:46;;;;;;;;;;;;;;;;;;1907561;28;7113;-64
2021/12/08 05:30:48;;;;;;;;;;;;;;;;;;1907671;28;7088;-64
2021/12/08 05:31:46;;;;;;;;;;;;;;;;;;1906763;28;7093;-64
2021/12/08 05:32:44;;;;;;;;;;;;;;;;;;1907448;28;7017;-64
2021/12/08 05:33:43;;;;;;;;;;;;;;;;;;1906087;28;9316;-64
2021/12/08 05:34:41;;;;;;;;;;;;;;;;;;1906096;28;7096;-65
2021/12/08 05:35:40;;;;;;;;;;;;;;;;;;1907085;28;9057;-64
2021/12/08 05:36:38;;;;;;;;;;;;;;;;;;1906484;28;8070;-64
2021/12/08 05:37:36;;;;;;;;;;;;;;;;;;1907117;28;8095;-64
2021/12/08 05:38:34;;;;;;;;;;;;;;;;;;1907662;28;7009;-64
2021/12/08 05:39:32;;;;;;;;;;;;;;;;;;1905583;28;7009;-64
2021/12/08 05:40:34;;;;;;;;;;;;;;;;;;1907195;28;7315;-64
2021/12/08 05:41:34;;;;;;;;;;;;;;;;;;1906006;28;7054;-64
2021/12/08 05:42:35;;;;;;;;;;;;;;;;;;1907149;28;7013;-65
2021/12/08 05:43:32;;;;;;;;;;;;;;;;;;1906889;28;7376;-65
2021/12/08 05:44:30;;;;;;;;;;;;;;;;;;1907237;28;7117;-65
2021/12/08 05:45:28;;;;;;;;;;;;;;;;;;1910832;28;7113;-64
2021/12/08 05:46:28;;;;;;;;;;;;;;;;;;1914940;28;7050;-65
2021/12/08 05:47:28;;;;;;;;;;;;;;;;;;1912014;28;7010;-65
2021/12/08 05:48:30;;;;;;;;;;;;;;;;;;1906970;28;7096;-65
2021/12/08 05:49:27;;;;;;;;;;;;;;;;;;1906166;28;7022;-65
2021/12/08 05:50:36;;;;;;;;;;;;;;;;;;1906039;28;7060;-65
2021/12/08 05:51:35;;;;;;;;;;;;;;;;;;1906657;28;7009;-65
2021/12/08 05:52:33;;;;;;;;;;;;;;;;;;1905524;28;8179;-65
2021/12/08 05:53:31;;;;;;;;;;;;;;;;;;1906815;28;7002;-64
2021/12/08 05:54:32;;;;;;;;;;;;;;;;;;1914262;28;7368;-64
2021/12/08 05:55:31;;;;;;;;;;;;;;;;;;1914494;28;7113;-65
2021/12/08 05:56:29;;;;;;;;;;;;;;;;;;1915024;28;7130;-64
2021/12/08 05:57:29;;;;;;;;;;;;;;;;;;1905938;28;7294;-65
2021/12/08 05:58:28;;;;;;;;;;;;;;;;;;1906394;28;7972;-65
2021/12/08 05:59:26;;;;;;;;;;;;;;;;;;1921831;28;8098;-65
2021/12/08 06:00:23;;;;;;;;;;;;;;;;;;1928477;28;7042;-65
2021/12/08 06:01:35;;;;;;;;;;;;;;;;;;1915799;28;7078;-65
2021/12/08 06:02:36;;;;;;;;;;;;;;;;;;1914185;28;7088;-65
2021/12/08 06:03:34;;;;;;;;;;;;;;;;;;1914497;28;7096;-65
2021/12/08 06:04:33;;;;;;;;;;;;;;;;;;1914253;28;7088;-64
2021/12/08 06:05:31;;;;;;;;;;;;;;;;;;1914500;28;7096;-65
2021/12/08 06:06:29;;;;;;;;;;;;;;;;;;1913378;28;7230;-65
2021/12/08 06:07:27;;;;;;;;;;;;;;;;;;1906847;28;7013;-65
2021/12/08 06:08:28;;;;;;;;;;;;;;;;;;1906350;28;7005;-65
2021/12/08 06:09:27;;;;;;;;;;;;;;;;;;1905908;28;7005;-65
2021/12/08 06:10:29;;;;;;;;;;;;;;;;;;1906477;28;7092;-65
2021/12/08 06:11:27;;;;;;;;;;;;;;;;;;1906886;28;7316;-65
2021/12/08 06:12:25;;;;;;;;;;;;;;;;;;1906692;28;7009;-65
2021/12/08 06:13:23;;;;;;;;;;;;;;;;;;1906938;28;7010;-65
2021/12/08 06:14:24;;;;;;;;;;;;;;;;;;1910173;28;7054;-65
2021/12/08 06:15:22;;;;;;;;;;;;;;;;;;1914030;28;7367;-65
2021/12/08 06:16:21;;;;;;;;;;;;;;;;;;1913607;28;7113;-65
2021/12/08 06:17:19;;;;;;;;;;;;;;;;;;1913123;28;7396;-65
2021/12/08 06:18:21;;;;;;;;;;;;;;;;;;1904393;28;7049;-64
2021/12/08 06:19:19;;;;;;;;;;;;;;;;;;1905790;28;7117;-65
2021/12/08 06:20:17;;;;;;;;;;;;;;;;;;1906069;28;7005;-65
2021/12/08 06:21:16;;;;;;;;;;;;;;;;;;1906087;28;7009;-65
2021/12/08 06:22:17;;;;;;;;;;;;;;;;;;1906064;28;8148;-65
2021/12/08 06:23:15;;;;;;;;;;;;;;;;;;1906099;28;7109;-65
2021/12/08 06:24:13;;;;;;;;;;;;;;;;;;1904868;28;7675;-65
2021/12/08 06:25:13;;;;;;;;;;;;;;;;;;1905895;28;7013;-64
2021/12/08 06:26:13;;;;;;;;;;;;;;;;;;1906223;28;7364;-65
2021/12/08 06:27:10;;;;;;;;;;;;;;;;;;1906288;28;7010;-65
2021/12/08 06:28:08;;;;;;;;;;;;;;;;;;1906087;28;7327;-65
2021/12/08 06:29:07;;;;;;;;;;;;;;;;;;1905131;28;7013;-65
2021/12/08 06:30:07;;;;;;;;;;;;;;;;;;1905560;28;7029;-65
2021/12/08 06:31:07;;;;;;;;;;;;;;;;;;1912352;28;7029;-65
2021/12/08 06:32:08;;;;;;;;;;;;;;;;;;1914492;28;7116;-65
2021/12/08 06:33:06;;;;;;;;;;;;;;;;;;1913790;28;7014;-65
2021/12/08 06:34:04;;;;;;;;;;;;;;;;;;1913051;28;7042;-65
2021/12/08 06:35:07;;;;;;;;;;;;;;;;;;1913450;28;7100;-65
2021/12/08 06:36:08;;;;;;;;;;;;;;;;;;1914054;28;7005;-65
2021/12/08 06:37:11;;;;;;;;;;;;;;;;;;1913786;28;7009;-65
2021/12/08 06:38:10;;;;;;;;;;;;;;;;;;1913322;28;7005;-65
2021/12/08 06:39:11;;;;;;;;;;;;;;;;;;1914194;28;7035;-65
2021/12/08 06:40:17;;;;;;;;;;;;;;;;;;1913856;28;7010;-65
2021/12/08 06:41:33;;;;;;;;;;;;;;;;;;1913985;28;7524;-65
2021/12/08 06:42:33;;;;;;;;;;;;;;;;;;1914117;28;7111;-65
2021/12/08 06:43:33;;;;;;;;;;;;;;;;;;1914232;28;7009;-65
2021/12/08 06:44:32;;;;;;;;;;;;;;;;;;1907104;28;7006;-64
2021/12/08 06:45:32;;;;;;;;;;;;;;;;;;1906823;28;7009;-64
2021/12/08 06:46:31;;;;;;;;;;;;;;;;;;1906531;28;7918;-65
2021/12/08 06:47:31;;;;;;;;;;;;;;;;;;1905769;28;7096;-65
2021/12/08 06:48:32;;;;;;;;;;;;;;;;;;1906328;28;7107;-64
2021/12/08 06:49:29;;;;;;;;;;;;;;;;;;1906570;28;8106;-65
2021/12/08 06:50:33;;;;;;;;;;;;;;;;;;1906393;28;7009;-65
2021/12/08 06:51:34;;;;;;;;;;;;;;;;;;1906208;28;7094;-65
2021/12/08 06:52:36;;;;;;;;;;;;;;;;;;1905983;28;7306;-65
2021/12/08 06:53:34;;;;;;;;;;;;;;;;;;1906662;28;7104;-64
2021/12/08 06:54:35;;;;;;;;;;;;;;;;;;1906727;28;7001;-64
2021/12/08 06:55:53;;;;;;;;;;;;;;;;;;1907185;28;7109;-65
2021/12/08 06:56:55;;;;;;;;;;;;;;;;;;1906485;28;7088;-65
2021/12/08 06:57:56;;;;;;;;;;;;;;;;;;1906729;28;7098;-65
2021/12/08 06:58:57;;;;;;;;;;;;;;;;;;1906727;28;7005;-65
2021/12/08 07:00:11;;;;;;;;;;;;;;;;;;1909732;28;7085;-65
2021/12/08 07:01:18;;;;;;;;;;;;;;;;;;1914595;28;7009;-64
2021/12/08 07:02:32;;;;;;;;;;;;;;;;;;1914064;28;7010;-64
2021/12/08 07:03:41;;;;;;;;;;;;;;;;;;1907177;28;7121;-65
2021/12/08 07:04:54;;;;;;;;;;;;;;;;;;1905721;28;7005;-65
2021/12/08 07:06:04;;;;;;;;;;;;;;;;;;1905856;28;7096;-64
2021/12/08 07:07:15;;;;;;;;;;;;;;;;;;1913681;28;7092;-64
2021/12/08 07:08:12;;;;;;;;;;;;;;;;;;1913953;28;7067;-65
2021/12/08 07:09:12;;;;;;;;;;;;;;;;;;1913787;28;7033;-65
2021/12/08 07:10:10;;;;;;;;;;;;;;;;;;1913926;28;7636;-65
2021/12/08 07:11:08;;;;;;;;;;;;;;;;;;1910405;28;7229;-65
2021/12/08 07:12:26;;;;;;;;;;;;;;;;;;1906397;28;7096;-65
2021/12/08 07:13:25;;;;;;;;;;;;;;;;;;1906023;28;7042;-65
2021/12/08 07:14:28;;;;;;;;;;;;;;;;;;1907785;28;7017;-65
2021/12/08 07:15:39;;;;;;;;;;;;;;;;;;1905945;28;7010;-65
2021/12/08 07:16:40;;;;;;;;;;;;;;;;;;1905835;28;7304;-65
2021/12/08 07:17:40;;;;;;;;;;;;;;;;;;1905799;28;7127;-65
2021/12/08 07:18:49;;;;;;;;;;;;;;;;;;1905844;28;7009;-65
2021/12/08 07:20:02;;;;;;;;;;;;;;;;;;1906015;28;7092;-65
2021/12/08 07:21:02;;;;;;;;;;;;;;;;;;1904644;28;7034;-65
2021/12/08 07:22:05;;;;;;;;;;;;;;;;;;1905707;28;7116;-65
2021/12/08 07:23:02;;;;;;;;;;;;;;;;;;1905698;28;7005;-65
2021/12/08 07:24:08;;;;;;;;;;;;;;;;;;1905921;28;8079;-65
2021/12/08 07:25:06;;;;;;;;;;;;;;;;;;1906039;28;7005;-65
2021/12/08 07:26:14;;;;;;;;;;;;;;;;;;1905612;28;7006;-65
2021/12/08 07:27:14;;;;;;;;;;;;;;;;;;1905926;28;7151;-64
2021/12/08 07:28:14;;;;;;;;;;;;;;;;;;1905347;28;7038;-65
2021/12/08 07:29:14;;;;;;;;;;;;;;;;;;1905630;28;7093;-64
2021/12/08 07:30:22;;;;;;;;;;;;;;;;;;1906245;28;7013;-65
2021/12/08 07:31:31;;;;;;;;;;;;;;;;;;1906658;28;7018;-65
2021/12/08 07:32:33;;;;;;;;;;;;;;;;;;1906630;28;7113;-64
2021/12/08 07:33:31;;;;;;;;;;;;;;;;;;1905743;28;7368;-64
2021/12/08 07:34:31;;;;;;;;;;;;;;;;;;1910997;28;7092;-65
2021/12/08 07:35:32;;;;;;;;;;;;;;;;;;1913666;28;7021;-64
2021/12/08 07:36:31;;;;;;;;;;;;;;;;;;1913613;28;7005;-65